sensor_id;sensor_type;location;lat;lon;timestamp;P1;durP1;ratioP1;P2;durP2;ratioP2
18338;SDS011;9295;44.484;11.240;2022-08-03T00:00:37;8.40;;;3.07;;
18338;SDS011;9295;44.484;11.240;2022-08-03T00:03:06;4.60;;;2.40;;
18338;SDS011;9295;44.484;11.240;2022-08-03T00:05:36;7.43;;;2.63;;
18338;SDS011;9295;44.484;11.240;2022-08-03T00:08:25;13.80;;;3.27;;
18338;SDS011;9295;44.484;11.240;2022-08-03T00:10:54;4.60;;;2.57;;
18338;SDS011;9295;44.484;11.240;2022-08-03T00:13:22;5.23;;;2.70;;
18338;SDS011;9295;44.484;11.240;2022-08-03T00:15:51;4.17;;;2.60;;
18338;SDS011;9295;44.484;11.240;2022-08-03T00:18:25;4.13;;;2.83;;
18338;SDS011;9295;44.484;11.240;2022-08-03T00:20:55;4.57;;;2.63;;
18338;SDS011;9295;44.484;11.240;2022-08-03T00:23:23;4.13;;;2.57;;
18338;SDS011;9295;44.484;11.240;2022-08-03T00:26:12;4.93;;;2.30;;
18338;SDS011;9295;44.484;11.240;2022-08-03T00:28:40;8.13;;;2.90;;
18338;SDS011;9295;44.484;11.240;2022-08-03T00:31:09;4.67;;;2.80;;
18338;SDS011;9295;44.484;11.240;2022-08-03T00:33:39;7.20;;;2.40;;
18338;SDS011;9295;44.484;11.240;2022-08-03T00:36:30;4.60;;;2.60;;
18338;SDS011;9295;44.484;11.240;2022-08-03T00:39:03;5.10;;;2.93;;
18338;SDS011;9295;44.484;11.240;2022-08-03T00:41:31;8.50;;;2.90;;
18338;SDS011;9295;44.484;11.240;2022-08-03T00:44:02;4.77;;;2.50;;
18338;SDS011;9295;44.484;11.240;2022-08-03T00:46:31;4.30;;;2.83;;
18338;SDS011;9295;44.484;11.240;2022-08-03T00:49:00;5.77;;;2.87;;
18338;SDS011;9295;44.484;11.240;2022-08-03T00:51:30;3.30;;;2.60;;
18338;SDS011;9295;44.484;11.240;2022-08-03T00:54:00;5.40;;;3.00;;
18338;SDS011;9295;44.484;11.240;2022-08-03T00:56:29;5.13;;;2.93;;
18338;SDS011;9295;44.484;11.240;2022-08-03T00:58:58;6.07;;;2.90;;
18338;SDS011;9295;44.484;11.240;2022-08-03T01:01:27;8.70;;;2.40;;
18338;SDS011;9295;44.484;11.240;2022-08-03T01:03:58;5.50;;;2.83;;
18338;SDS011;9295;44.484;11.240;2022-08-03T01:06:29;8.30;;;2.83;;
18338;SDS011;9295;44.484;11.240;2022-08-03T01:09:08;9.00;;;2.83;;
18338;SDS011;9295;44.484;11.240;2022-08-03T01:11:46;5.33;;;2.80;;
18338;SDS011;9295;44.484;11.240;2022-08-03T01:14:30;9.57;;;2.90;;
18338;SDS011;9295;44.484;11.240;2022-08-03T01:17:04;7.70;;;2.87;;
18338;SDS011;9295;44.484;11.240;2022-08-03T01:19:44;7.47;;;2.73;;
18338;SDS011;9295;44.484;11.240;2022-08-03T01:22:28;3.83;;;2.30;;
18338;SDS011;9295;44.484;11.240;2022-08-03T01:25:09;9.97;;;3.03;;
18338;SDS011;9295;44.484;11.240;2022-08-03T01:27:50;4.90;;;2.77;;
18338;SDS011;9295;44.484;11.240;2022-08-03T01:30:31;5.33;;;2.40;;
18338;SDS011;9295;44.484;11.240;2022-08-03T01:33:02;9.10;;;2.93;;
18338;SDS011;9295;44.484;11.240;2022-08-03T01:35:34;3.50;;;2.40;;
18338;SDS011;9295;44.484;11.240;2022-08-03T01:38:07;4.60;;;2.93;;
18338;SDS011;9295;44.484;11.240;2022-08-03T01:40:38;5.03;;;2.80;;
18338;SDS011;9295;44.484;11.240;2022-08-03T01:43:12;5.00;;;2.70;;
18338;SDS011;9295;44.484;11.240;2022-08-03T01:46:09;11.70;;;3.23;;
18338;SDS011;9295;44.484;11.240;2022-08-03T01:48:41;8.03;;;4.43;;
18338;SDS011;9295;44.484;11.240;2022-08-03T01:51:11;11.77;;;6.40;;
18338;SDS011;9295;44.484;11.240;2022-08-03T01:53:42;10.80;;;6.10;;
18338;SDS011;9295;44.484;11.240;2022-08-03T01:56:13;9.37;;;6.20;;
18338;SDS011;9295;44.484;11.240;2022-08-03T01:58:47;10.30;;;4.40;;
18338;SDS011;9295;44.484;11.240;2022-08-03T02:01:18;10.40;;;4.07;;
18338;SDS011;9295;44.484;11.240;2022-08-03T02:03:49;8.53;;;3.13;;
18338;SDS011;9295;44.484;11.240;2022-08-03T02:06:27;5.40;;;3.00;;
18338;SDS011;9295;44.484;11.240;2022-08-03T02:09:19;5.67;;;3.33;;
18338;SDS011;9295;44.484;11.240;2022-08-03T02:11:50;4.80;;;2.87;;
18338;SDS011;9295;44.484;11.240;2022-08-03T02:14:21;9.37;;;3.43;;
18338;SDS011;9295;44.484;11.240;2022-08-03T02:16:54;4.60;;;2.83;;
18338;SDS011;9295;44.484;11.240;2022-08-03T02:19:25;5.70;;;2.57;;
18338;SDS011;9295;44.484;11.240;2022-08-03T02:22:01;8.70;;;3.10;;
18338;SDS011;9295;44.484;11.240;2022-08-03T02:24:31;5.60;;;3.30;;
18338;SDS011;9295;44.484;11.240;2022-08-03T02:27:00;17.87;;;6.20;;
18338;SDS011;9295;44.484;11.240;2022-08-03T02:29:33;7.80;;;3.83;;
18338;SDS011;9295;44.484;11.240;2022-08-03T02:32:11;11.30;;;3.30;;
18338;SDS011;9295;44.484;11.240;2022-08-03T02:34:42;8.90;;;2.97;;
18338;SDS011;9295;44.484;11.240;2022-08-03T02:37:16;4.70;;;3.07;;
18338;SDS011;9295;44.484;11.240;2022-08-03T02:39:46;4.50;;;3.10;;
18338;SDS011;9295;44.484;11.240;2022-08-03T02:42:19;3.70;;;2.60;;
18338;SDS011;9295;44.484;11.240;2022-08-03T02:44:51;4.00;;;2.63;;
18338;SDS011;9295;44.484;11.240;2022-08-03T02:47:23;6.87;;;2.50;;
18338;SDS011;9295;44.484;11.240;2022-08-03T02:50:15;5.43;;;2.37;;
18338;SDS011;9295;44.484;11.240;2022-08-03T02:52:45;4.70;;;2.60;;
18338;SDS011;9295;44.484;11.240;2022-08-03T02:55:16;5.40;;;3.00;;
18338;SDS011;9295;44.484;11.240;2022-08-03T02:57:49;5.07;;;3.10;;
18338;SDS011;9295;44.484;11.240;2022-08-03T03:00:19;5.77;;;2.90;;
18338;SDS011;9295;44.484;11.240;2022-08-03T03:02:56;4.60;;;3.07;;
18338;SDS011;9295;44.484;11.240;2022-08-03T03:05:26;4.40;;;2.67;;
18338;SDS011;9295;44.484;11.240;2022-08-03T03:08:18;6.00;;;3.00;;
18338;SDS011;9295;44.484;11.240;2022-08-03T03:10:54;4.03;;;2.60;;
18338;SDS011;9295;44.484;11.240;2022-08-03T03:13:23;4.93;;;2.90;;
18338;SDS011;9295;44.484;11.240;2022-08-03T03:15:53;5.07;;;2.70;;
18338;SDS011;9295;44.484;11.240;2022-08-03T03:18:29;4.57;;;2.80;;
18338;SDS011;9295;44.484;11.240;2022-08-03T03:20:59;4.13;;;2.80;;
18338;SDS011;9295;44.484;11.240;2022-08-03T03:23:28;5.83;;;2.93;;
18338;SDS011;9295;44.484;11.240;2022-08-03T03:25:59;5.40;;;3.27;;
18338;SDS011;9295;44.484;11.240;2022-08-03T03:28:31;3.67;;;2.70;;
18338;SDS011;9295;44.484;11.240;2022-08-03T03:31:02;4.07;;;2.73;;
18338;SDS011;9295;44.484;11.240;2022-08-03T03:33:33;5.00;;;2.67;;
18338;SDS011;9295;44.484;11.240;2022-08-03T03:36:02;4.03;;;2.90;;
18338;SDS011;9295;44.484;11.240;2022-08-03T03:38:32;6.97;;;2.97;;
18338;SDS011;9295;44.484;11.240;2022-08-03T03:41:01;3.70;;;2.77;;
18338;SDS011;9295;44.484;11.240;2022-08-03T03:43:31;4.07;;;2.90;;
18338;SDS011;9295;44.484;11.240;2022-08-03T03:46:00;3.70;;;2.80;;
18338;SDS011;9295;44.484;11.240;2022-08-03T03:48:29;4.60;;;3.00;;
18338;SDS011;9295;44.484;11.240;2022-08-03T03:50:59;13.43;;;2.80;;
18338;SDS011;9295;44.484;11.240;2022-08-03T03:53:29;4.00;;;2.77;;
18338;SDS011;9295;44.484;11.240;2022-08-03T03:55:57;5.00;;;2.60;;
18338;SDS011;9295;44.484;11.240;2022-08-03T03:58:29;5.30;;;2.87;;
18338;SDS011;9295;44.484;11.240;2022-08-03T04:00:59;4.50;;;2.90;;
18338;SDS011;9295;44.484;11.240;2022-08-03T04:03:28;8.10;;;3.13;;
18338;SDS011;9295;44.484;11.240;2022-08-03T04:06:02;5.50;;;3.33;;
18338;SDS011;9295;44.484;11.240;2022-08-03T04:08:48;4.00;;;2.63;;
18338;SDS011;9295;44.484;11.240;2022-08-03T04:11:35;4.27;;;2.70;;
18338;SDS011;9295;44.484;11.240;2022-08-03T04:14:07;4.63;;;2.80;;
18338;SDS011;9295;44.484;11.240;2022-08-03T04:16:44;4.90;;;3.10;;
18338;SDS011;9295;44.484;11.240;2022-08-03T04:19:17;7.93;;;3.50;;
18338;SDS011;9295;44.484;11.240;2022-08-03T04:22:06;4.67;;;3.10;;
18338;SDS011;9295;44.484;11.240;2022-08-03T04:24:39;6.43;;;3.10;;
18338;SDS011;9295;44.484;11.240;2022-08-03T04:27:11;4.23;;;2.60;;
18338;SDS011;9295;44.484;11.240;2022-08-03T04:29:45;4.53;;;2.93;;
18338;SDS011;9295;44.484;11.240;2022-08-03T04:32:15;5.93;;;2.67;;
18338;SDS011;9295;44.484;11.240;2022-08-03T04:34:45;6.83;;;2.70;;
18338;SDS011;9295;44.484;11.240;2022-08-03T04:37:17;4.60;;;2.87;;
18338;SDS011;9295;44.484;11.240;2022-08-03T04:39:51;4.70;;;3.13;;
18338;SDS011;9295;44.484;11.240;2022-08-03T04:42:23;5.77;;;2.83;;
18338;SDS011;9295;44.484;11.240;2022-08-03T04:44:53;6.77;;;3.23;;
18338;SDS011;9295;44.484;11.240;2022-08-03T04:47:28;4.17;;;2.70;;
18338;SDS011;9295;44.484;11.240;2022-08-03T04:49:59;4.00;;;2.80;;
18338;SDS011;9295;44.484;11.240;2022-08-03T04:52:30;9.83;;;3.00;;
18338;SDS011;9295;44.484;11.240;2022-08-03T04:54:59;8.43;;;3.00;;
18338;SDS011;9295;44.484;11.240;2022-08-03T04:57:28;16.10;;;3.80;;
18338;SDS011;9295;44.484;11.240;2022-08-03T04:59:57;17.80;;;4.00;;
18338;SDS011;9295;44.484;11.240;2022-08-03T05:02:30;12.23;;;3.43;;
18338;SDS011;9295;44.484;11.240;2022-08-03T05:04:59;5.33;;;3.13;;
18338;SDS011;9295;44.484;11.240;2022-08-03T05:07:27;4.23;;;2.90;;
18338;SDS011;9295;44.484;11.240;2022-08-03T05:10:03;6.47;;;2.60;;
18338;SDS011;9295;44.484;11.240;2022-08-03T05:12:42;3.80;;;3.13;;
18338;SDS011;9295;44.484;11.240;2022-08-03T05:15:12;5.93;;;2.90;;
18338;SDS011;9295;44.484;11.240;2022-08-03T05:17:41;3.60;;;2.70;;
18338;SDS011;9295;44.484;11.240;2022-08-03T05:20:10;5.77;;;2.90;;
18338;SDS011;9295;44.484;11.240;2022-08-03T05:22:45;4.10;;;2.80;;
18338;SDS011;9295;44.484;11.240;2022-08-03T05:25:14;5.20;;;2.73;;
18338;SDS011;9295;44.484;11.240;2022-08-03T05:27:50;4.37;;;2.60;;
18338;SDS011;9295;44.484;11.240;2022-08-03T05:30:18;5.53;;;2.43;;
18338;SDS011;9295;44.484;11.240;2022-08-03T05:33:00;4.37;;;2.73;;
18338;SDS011;9295;44.484;11.240;2022-08-03T05:35:30;5.77;;;2.60;;
18338;SDS011;9295;44.484;11.240;2022-08-03T05:38:22;6.33;;;2.90;;
18338;SDS011;9295;44.484;11.240;2022-08-03T05:40:59;5.43;;;2.37;;
18338;SDS011;9295;44.484;11.240;2022-08-03T05:43:48;3.40;;;2.40;;
18338;SDS011;9295;44.484;11.240;2022-08-03T05:46:17;2.90;;;2.20;;
18338;SDS011;9295;44.484;11.240;2022-08-03T05:48:46;4.60;;;2.80;;
18338;SDS011;9295;44.484;11.240;2022-08-03T05:51:15;4.27;;;2.70;;
18338;SDS011;9295;44.484;11.240;2022-08-03T05:53:49;4.97;;;2.53;;
18338;SDS011;9295;44.484;11.240;2022-08-03T05:56:20;5.13;;;2.40;;
18338;SDS011;9295;44.484;11.240;2022-08-03T05:58:50;4.17;;;2.60;;
18338;SDS011;9295;44.484;11.240;2022-08-03T06:01:19;6.83;;;2.67;;
18338;SDS011;9295;44.484;11.240;2022-08-03T06:03:48;6.60;;;2.70;;
18338;SDS011;9295;44.484;11.240;2022-08-03T06:06:18;5.23;;;2.80;;
18338;SDS011;9295;44.484;11.240;2022-08-03T06:08:48;4.40;;;2.50;;
18338;SDS011;9295;44.484;11.240;2022-08-03T06:11:17;5.93;;;2.73;;
18338;SDS011;9295;44.484;11.240;2022-08-03T06:13:45;7.53;;;2.57;;
18338;SDS011;9295;44.484;11.240;2022-08-03T06:16:14;3.83;;;2.60;;
18338;SDS011;9295;44.484;11.240;2022-08-03T06:18:43;8.97;;;2.67;;
18338;SDS011;9295;44.484;11.240;2022-08-03T06:21:11;5.17;;;2.80;;
18338;SDS011;9295;44.484;11.240;2022-08-03T06:23:42;4.90;;;2.80;;
18338;SDS011;9295;44.484;11.240;2022-08-03T06:26:24;6.80;;;3.30;;
18338;SDS011;9295;44.484;11.240;2022-08-03T06:28:54;5.90;;;2.70;;
18338;SDS011;9295;44.484;11.240;2022-08-03T06:31:23;4.60;;;2.60;;
18338;SDS011;9295;44.484;11.240;2022-08-03T06:33:59;5.70;;;2.60;;
18338;SDS011;9295;44.484;11.240;2022-08-03T06:36:48;6.00;;;2.77;;
18338;SDS011;9295;44.484;11.240;2022-08-03T06:39:18;5.67;;;3.10;;
18338;SDS011;9295;44.484;11.240;2022-08-03T06:41:51;4.53;;;2.60;;
18338;SDS011;9295;44.484;11.240;2022-08-03T06:44:21;13.27;;;3.27;;
18338;SDS011;9295;44.484;11.240;2022-08-03T06:46:49;14.43;;;3.10;;
18338;SDS011;9295;44.484;11.240;2022-08-03T06:49:18;18.20;;;3.63;;
18338;SDS011;9295;44.484;11.240;2022-08-03T06:51:47;6.17;;;2.70;;
18338;SDS011;9295;44.484;11.240;2022-08-03T06:54:33;7.43;;;3.00;;
18338;SDS011;9295;44.484;11.240;2022-08-03T06:57:05;4.03;;;2.67;;
18338;SDS011;9295;44.484;11.240;2022-08-03T06:59:35;5.00;;;2.27;;
18338;SDS011;9295;44.484;11.240;2022-08-03T07:02:24;8.93;;;2.73;;
18338;SDS011;9295;44.484;11.240;2022-08-03T07:04:54;7.67;;;2.70;;
18338;SDS011;9295;44.484;11.240;2022-08-03T07:07:23;8.53;;;2.40;;
18338;SDS011;9295;44.484;11.240;2022-08-03T07:09:52;5.90;;;2.40;;
18338;SDS011;9295;44.484;11.240;2022-08-03T07:12:28;8.90;;;2.60;;
18338;SDS011;9295;44.484;11.240;2022-08-03T07:14:57;6.63;;;2.20;;
18338;SDS011;9295;44.484;11.240;2022-08-03T07:17:30;8.43;;;2.80;;
18338;SDS011;9295;44.484;11.240;2022-08-03T07:20:00;5.90;;;2.63;;
18338;SDS011;9295;44.484;11.240;2022-08-03T07:22:30;4.40;;;2.67;;
18338;SDS011;9295;44.484;11.240;2022-08-03T07:24:59;7.03;;;2.40;;
18338;SDS011;9295;44.484;11.240;2022-08-03T07:27:29;4.90;;;2.67;;
18338;SDS011;9295;44.484;11.240;2022-08-03T07:29:59;3.80;;;2.43;;
18338;SDS011;9295;44.484;11.240;2022-08-03T07:32:28;3.27;;;2.00;;
18338;SDS011;9295;44.484;11.240;2022-08-03T07:34:57;5.40;;;2.80;;
18338;SDS011;9295;44.484;11.240;2022-08-03T07:37:27;9.37;;;2.77;;
18338;SDS011;9295;44.484;11.240;2022-08-03T07:39:56;3.80;;;2.40;;
18338;SDS011;9295;44.484;11.240;2022-08-03T07:42:25;3.90;;;2.37;;
18338;SDS011;9295;44.484;11.240;2022-08-03T07:44:55;3.73;;;2.40;;
18338;SDS011;9295;44.484;11.240;2022-08-03T07:47:25;6.17;;;2.43;;
18338;SDS011;9295;44.484;11.240;2022-08-03T07:50:01;6.10;;;2.23;;
18338;SDS011;9295;44.484;11.240;2022-08-03T07:52:34;6.20;;;2.70;;
18338;SDS011;9295;44.484;11.240;2022-08-03T07:55:17;5.93;;;2.37;;
18338;SDS011;9295;44.484;11.240;2022-08-03T07:57:46;5.27;;;2.60;;
18338;SDS011;9295;44.484;11.240;2022-08-03T08:00:17;11.87;;;2.80;;
18338;SDS011;9295;44.484;11.240;2022-08-03T08:02:48;5.23;;;2.37;;
18338;SDS011;9295;44.484;11.240;2022-08-03T08:05:20;8.23;;;2.77;;
18338;SDS011;9295;44.484;11.240;2022-08-03T08:07:49;13.43;;;2.20;;
18338;SDS011;9295;44.484;11.240;2022-08-03T08:10:17;6.23;;;2.77;;
18338;SDS011;9295;44.484;11.240;2022-08-03T08:12:46;11.23;;;3.20;;
18338;SDS011;9295;44.484;11.240;2022-08-03T08:15:16;10.63;;;3.17;;
18338;SDS011;9295;44.484;11.240;2022-08-03T08:17:46;4.67;;;2.50;;
18338;SDS011;9295;44.484;11.240;2022-08-03T08:20:16;4.47;;;2.40;;
18338;SDS011;9295;44.484;11.240;2022-08-03T08:22:56;7.90;;;2.70;;
18338;SDS011;9295;44.484;11.240;2022-08-03T08:25:27;4.57;;;2.67;;
18338;SDS011;9295;44.484;11.240;2022-08-03T08:28:00;5.43;;;2.70;;
18338;SDS011;9295;44.484;11.240;2022-08-03T08:30:51;6.13;;;2.60;;
18338;SDS011;9295;44.484;11.240;2022-08-03T08:33:19;4.33;;;2.83;;
18338;SDS011;9295;44.484;11.240;2022-08-03T08:35:51;14.17;;;3.43;;
18338;SDS011;9295;44.484;11.240;2022-08-03T08:38:20;12.67;;;3.00;;
18338;SDS011;9295;44.484;11.240;2022-08-03T08:40:49;9.20;;;2.73;;
18338;SDS011;9295;44.484;11.240;2022-08-03T08:43:18;4.87;;;2.47;;
18338;SDS011;9295;44.484;11.240;2022-08-03T08:45:47;5.90;;;2.43;;
18338;SDS011;9295;44.484;11.240;2022-08-03T08:48:19;11.10;;;2.60;;
18338;SDS011;9295;44.484;11.240;2022-08-03T08:50:51;6.80;;;2.90;;
18338;SDS011;9295;44.484;11.240;2022-08-03T08:53:24;5.23;;;2.13;;
18338;SDS011;9295;44.484;11.240;2022-08-03T08:55:56;8.10;;;2.40;;
18338;SDS011;9295;44.484;11.240;2022-08-03T08:58:28;4.60;;;2.17;;
18338;SDS011;9295;44.484;11.240;2022-08-03T09:00:58;7.10;;;2.37;;
18338;SDS011;9295;44.484;11.240;2022-08-03T09:03:32;11.50;;;2.10;;
18338;SDS011;9295;44.484;11.240;2022-08-03T09:06:01;5.30;;;2.23;;
18338;SDS011;9295;44.484;11.240;2022-08-03T09:08:32;8.53;;;2.07;;
18338;SDS011;9295;44.484;11.240;2022-08-03T09:11:01;13.27;;;2.63;;
18338;SDS011;9295;44.484;11.240;2022-08-03T09:13:30;4.60;;;2.17;;
18338;SDS011;9295;44.484;11.240;2022-08-03T09:16:07;3.60;;;2.03;;
18338;SDS011;9295;44.484;11.240;2022-08-03T09:18:41;5.83;;;2.10;;
18338;SDS011;9295;44.484;11.240;2022-08-03T09:21:11;3.33;;;2.00;;
18338;SDS011;9295;44.484;11.240;2022-08-03T09:23:59;5.33;;;2.20;;
18338;SDS011;9295;44.484;11.240;2022-08-03T09:26:38;8.43;;;2.20;;
18338;SDS011;9295;44.484;11.240;2022-08-03T09:29:18;8.00;;;2.50;;
18338;SDS011;9295;44.484;11.240;2022-08-03T09:31:49;7.90;;;2.17;;
18338;SDS011;9295;44.484;11.240;2022-08-03T09:34:28;7.57;;;2.17;;
18338;SDS011;9295;44.484;11.240;2022-08-03T09:36:57;5.23;;;2.20;;
18338;SDS011;9295;44.484;11.240;2022-08-03T09:39:26;8.23;;;2.20;;
18338;SDS011;9295;44.484;11.240;2022-08-03T09:42:07;6.63;;;2.57;;
18338;SDS011;9295;44.484;11.240;2022-08-03T09:44:41;3.70;;;2.40;;
18338;SDS011;9295;44.484;11.240;2022-08-03T09:47:11;10.63;;;2.90;;
18338;SDS011;9295;44.484;11.240;2022-08-03T09:49:59;5.03;;;2.27;;
18338;SDS011;9295;44.484;11.240;2022-08-03T09:52:30;5.60;;;2.47;;
18338;SDS011;9295;44.484;11.240;2022-08-03T09:55:18;12.63;;;2.70;;
18338;SDS011;9295;44.484;11.240;2022-08-03T09:58:08;6.80;;;2.77;;
18338;SDS011;9295;44.484;11.240;2022-08-03T10:00:51;11.23;;;2.60;;
18338;SDS011;9295;44.484;11.240;2022-08-03T10:03:21;8.03;;;2.53;;
18338;SDS011;9295;44.484;11.240;2022-08-03T10:05:52;4.90;;;2.40;;
18338;SDS011;9295;44.484;11.240;2022-08-03T10:08:25;3.87;;;2.27;;
18338;SDS011;9295;44.484;11.240;2022-08-03T10:10:54;5.30;;;2.40;;
18338;SDS011;9295;44.484;11.240;2022-08-03T10:13:24;5.17;;;2.40;;
18338;SDS011;9295;44.484;11.240;2022-08-03T10:15:53;4.90;;;2.07;;
18338;SDS011;9295;44.484;11.240;2022-08-03T10:18:41;4.93;;;2.47;;
18338;SDS011;9295;44.484;11.240;2022-08-03T10:21:11;3.57;;;2.20;;
18338;SDS011;9295;44.484;11.240;2022-08-03T10:23:43;3.33;;;2.10;;
18338;SDS011;9295;44.484;11.240;2022-08-03T10:26:15;5.80;;;2.40;;
18338;SDS011;9295;44.484;11.240;2022-08-03T10:28:46;3.57;;;2.13;;
18338;SDS011;9295;44.484;11.240;2022-08-03T10:31:17;2.90;;;2.00;;
18338;SDS011;9295;44.484;11.240;2022-08-03T10:33:49;4.80;;;2.10;;
18338;SDS011;9295;44.484;11.240;2022-08-03T10:36:23;3.37;;;2.03;;
18338;SDS011;9295;44.484;11.240;2022-08-03T10:38:56;3.77;;;2.27;;
18338;SDS011;9295;44.484;11.240;2022-08-03T10:41:26;5.50;;;2.40;;
18338;SDS011;9295;44.484;11.240;2022-08-03T10:44:02;7.33;;;2.00;;
18338;SDS011;9295;44.484;11.240;2022-08-03T10:46:32;6.33;;;1.90;;
18338;SDS011;9295;44.484;11.240;2022-08-03T10:49:07;4.63;;;2.10;;
18338;SDS011;9295;44.484;11.240;2022-08-03T10:51:40;3.10;;;1.90;;
18338;SDS011;9295;44.484;11.240;2022-08-03T10:57:45;5.40;;;1.73;;
18338;SDS011;9295;44.484;11.240;2022-08-03T11:00:27;7.73;;;2.37;;
18338;SDS011;9295;44.484;11.240;2022-08-03T11:05:44;3.43;;;1.97;;
18338;SDS011;9295;44.484;11.240;2022-08-03T11:08:20;3.07;;;1.90;;
18338;SDS011;9295;44.484;11.240;2022-08-03T11:11:24;5.77;;;1.87;;
18338;SDS011;9295;44.484;11.240;2022-08-03T11:13:58;5.23;;;2.20;;
18338;SDS011;9295;44.484;11.240;2022-08-03T11:16:29;4.70;;;2.07;;
18338;SDS011;9295;44.484;11.240;2022-08-03T11:19:01;7.20;;;2.00;;
18338;SDS011;9295;44.484;11.240;2022-08-03T11:27:30;7.70;;;2.20;;
18338;SDS011;9295;44.484;11.240;2022-08-03T11:30:03;2.97;;;1.70;;
18338;SDS011;9295;44.484;11.240;2022-08-03T11:35:39;5.30;;;1.60;;
18338;SDS011;9295;44.484;11.240;2022-08-03T11:38:28;3.70;;;1.77;;
18338;SDS011;9295;44.484;11.240;2022-08-03T11:40:58;4.90;;;2.07;;
18338;SDS011;9295;44.484;11.240;2022-08-03T11:46:15;3.53;;;1.90;;
18338;SDS011;9295;44.484;11.240;2022-08-03T11:49:01;3.20;;;1.70;;
18338;SDS011;9295;44.484;11.240;2022-08-03T11:51:36;7.87;;;1.80;;
18338;SDS011;9295;44.484;11.240;2022-08-03T11:54:06;2.70;;;1.40;;
18338;SDS011;9295;44.484;11.240;2022-08-03T11:56:44;7.33;;;1.90;;
18338;SDS011;9295;44.484;11.240;2022-08-03T11:59:14;2.50;;;1.73;;
18338;SDS011;9295;44.484;11.240;2022-08-03T12:01:48;6.63;;;1.80;;
18338;SDS011;9295;44.484;11.240;2022-08-03T12:04:17;4.50;;;1.80;;
18338;SDS011;9295;44.484;11.240;2022-08-03T12:06:58;9.37;;;2.10;;
18338;SDS011;9295;44.484;11.240;2022-08-03T12:09:27;2.40;;;1.50;;
18338;SDS011;9295;44.484;11.240;2022-08-03T12:11:57;6.67;;;2.27;;
18338;SDS011;9295;44.484;11.240;2022-08-03T12:14:27;4.50;;;1.60;;
18338;SDS011;9295;44.484;11.240;2022-08-03T12:17:16;3.07;;;1.90;;
18338;SDS011;9295;44.484;11.240;2022-08-03T12:19:45;9.33;;;2.10;;
18338;SDS011;9295;44.484;11.240;2022-08-03T12:22:14;3.47;;;1.77;;
18338;SDS011;9295;44.484;11.240;2022-08-03T12:24:43;3.03;;;1.80;;
18338;SDS011;9295;44.484;11.240;2022-08-03T12:27:23;8.10;;;1.47;;
18338;SDS011;9295;44.484;11.240;2022-08-03T12:29:55;2.40;;;1.60;;
18338;SDS011;9295;44.484;11.240;2022-08-03T12:32:25;5.03;;;1.80;;
18338;SDS011;9295;44.484;11.240;2022-08-03T12:34:57;3.67;;;2.00;;
18338;SDS011;9295;44.484;11.240;2022-08-03T12:37:30;5.20;;;1.60;;
18338;SDS011;9295;44.484;11.240;2022-08-03T12:39:59;10.73;;;1.73;;
18338;SDS011;9295;44.484;11.240;2022-08-03T12:42:38;8.00;;;2.10;;
18338;SDS011;9295;44.484;11.240;2022-08-03T12:45:20;4.13;;;1.77;;
18338;SDS011;9295;44.484;11.240;2022-08-03T12:47:53;7.20;;;2.07;;
18338;SDS011;9295;44.484;11.240;2022-08-03T12:50:23;4.80;;;1.43;;
18338;SDS011;9295;44.484;11.240;2022-08-03T12:52:53;3.10;;;1.63;;
18338;SDS011;9295;44.484;11.240;2022-08-03T12:55:22;3.10;;;1.73;;
18338;SDS011;9295;44.484;11.240;2022-08-03T12:57:54;5.83;;;1.80;;
18338;SDS011;9295;44.484;11.240;2022-08-03T13:00:23;4.63;;;1.60;;
18338;SDS011;9295;44.484;11.240;2022-08-03T13:03:00;5.97;;;2.10;;
18338;SDS011;9295;44.484;11.240;2022-08-03T13:05:49;3.80;;;1.40;;
18338;SDS011;9295;44.484;11.240;2022-08-03T13:08:18;2.60;;;1.40;;
18338;SDS011;9295;44.484;11.240;2022-08-03T13:10:47;2.93;;;1.50;;
18338;SDS011;9295;44.484;11.240;2022-08-03T13:13:18;3.50;;;1.70;;
18338;SDS011;9295;44.484;11.240;2022-08-03T13:16:01;5.33;;;1.70;;
18338;SDS011;9295;44.484;11.240;2022-08-03T13:18:30;4.47;;;1.87;;
18338;SDS011;9295;44.484;11.240;2022-08-03T13:20:59;4.23;;;2.00;;
18338;SDS011;9295;44.484;11.240;2022-08-03T13:23:28;2.70;;;1.70;;
18338;SDS011;9295;44.484;11.240;2022-08-03T13:25:56;4.50;;;1.47;;
18338;SDS011;9295;44.484;11.240;2022-08-03T13:28:26;2.93;;;1.80;;
18338;SDS011;9295;44.484;11.240;2022-08-03T13:30:55;4.13;;;1.60;;
18338;SDS011;9295;44.484;11.240;2022-08-03T13:33:25;3.27;;;1.77;;
18338;SDS011;9295;44.484;11.240;2022-08-03T13:35:54;6.80;;;2.20;;
18338;SDS011;9295;44.484;11.240;2022-08-03T13:38:23;3.63;;;1.87;;
18338;SDS011;9295;44.484;11.240;2022-08-03T13:40:54;5.50;;;2.20;;
18338;SDS011;9295;44.484;11.240;2022-08-03T13:43:23;5.70;;;2.03;;
18338;SDS011;9295;44.484;11.240;2022-08-03T13:45:53;7.00;;;2.00;;
18338;SDS011;9295;44.484;11.240;2022-08-03T13:48:23;4.50;;;2.10;;
18338;SDS011;9295;44.484;11.240;2022-08-03T13:51:03;10.77;;;1.97;;
18338;SDS011;9295;44.484;11.240;2022-08-03T13:53:49;5.27;;;1.80;;
18338;SDS011;9295;44.484;11.240;2022-08-03T13:56:19;3.50;;;1.70;;
18338;SDS011;9295;44.484;11.240;2022-08-03T13:58:48;3.37;;;1.60;;
18338;SDS011;9295;44.484;11.240;2022-08-03T14:01:18;6.23;;;1.93;;
18338;SDS011;9295;44.484;11.240;2022-08-03T14:04:07;3.43;;;1.87;;
18338;SDS011;9295;44.484;11.240;2022-08-03T14:06:47;3.43;;;1.80;;
18338;SDS011;9295;44.484;11.240;2022-08-03T14:09:16;6.33;;;1.93;;
18338;SDS011;9295;44.484;11.240;2022-08-03T14:11:45;9.23;;;2.37;;
18338;SDS011;9295;44.484;11.240;2022-08-03T14:14:34;10.70;;;2.10;;
18338;SDS011;9295;44.484;11.240;2022-08-03T14:17:04;4.33;;;2.00;;
18338;SDS011;9295;44.484;11.240;2022-08-03T14:19:33;6.60;;;1.93;;
18338;SDS011;9295;44.484;11.240;2022-08-03T14:22:19;4.40;;;2.40;;
18338;SDS011;9295;44.484;11.240;2022-08-03T14:24:48;3.30;;;1.73;;
18338;SDS011;9295;44.484;11.240;2022-08-03T14:27:17;3.67;;;1.90;;
18338;SDS011;9295;44.484;11.240;2022-08-03T14:29:46;5.40;;;1.93;;
18338;SDS011;9295;44.484;11.240;2022-08-03T14:32:15;2.77;;;1.67;;
18338;SDS011;9295;44.484;11.240;2022-08-03T14:34:47;5.63;;;1.97;;
18338;SDS011;9295;44.484;11.240;2022-08-03T14:37:16;6.53;;;1.97;;
18338;SDS011;9295;44.484;11.240;2022-08-03T14:39:46;7.50;;;2.10;;
18338;SDS011;9295;44.484;11.240;2022-08-03T14:42:30;4.57;;;1.80;;
18338;SDS011;9295;44.484;11.240;2022-08-03T14:44:59;3.93;;;1.73;;
18338;SDS011;9295;44.484;11.240;2022-08-03T14:47:36;4.33;;;1.80;;
18338;SDS011;9295;44.484;11.240;2022-08-03T14:50:28;7.57;;;2.00;;
18338;SDS011;9295;44.484;11.240;2022-08-03T14:53:08;5.17;;;1.77;;
18338;SDS011;9295;44.484;11.240;2022-08-03T14:55:37;2.90;;;1.73;;
18338;SDS011;9295;44.484;11.240;2022-08-03T14:58:15;3.23;;;1.67;;
18338;SDS011;9295;44.484;11.240;2022-08-03T15:00:47;2.40;;;1.50;;
18338;SDS011;9295;44.484;11.240;2022-08-03T15:03:17;3.23;;;1.60;;
18338;SDS011;9295;44.484;11.240;2022-08-03T15:05:49;4.87;;;2.00;;
18338;SDS011;9295;44.484;11.240;2022-08-03T15:08:18;3.17;;;1.67;;
18338;SDS011;9295;44.484;11.240;2022-08-03T15:10:48;4.63;;;1.80;;
18338;SDS011;9295;44.484;11.240;2022-08-03T15:13:17;4.23;;;1.97;;
18338;SDS011;9295;44.484;11.240;2022-08-03T15:15:47;2.90;;;2.10;;
18338;SDS011;9295;44.484;11.240;2022-08-03T15:18:18;3.93;;;1.70;;
18338;SDS011;9295;44.484;11.240;2022-08-03T15:20:47;5.50;;;1.77;;
18338;SDS011;9295;44.484;11.240;2022-08-03T15:23:16;5.07;;;1.77;;
18338;SDS011;9295;44.484;11.240;2022-08-03T15:25:45;12.70;;;2.10;;
18338;SDS011;9295;44.484;11.240;2022-08-03T15:28:34;8.60;;;1.73;;
18338;SDS011;9295;44.484;11.240;2022-08-03T15:31:03;3.37;;;1.70;;
18338;SDS011;9295;44.484;11.240;2022-08-03T15:33:34;7.10;;;1.70;;
18338;SDS011;9295;44.484;11.240;2022-08-03T15:36:06;7.90;;;1.60;;
18338;SDS011;9295;44.484;11.240;2022-08-03T15:38:34;5.13;;;1.77;;